createdAt,value
2019-03-01T00:01:02.134Z,22.40
2019-03-01T00:03:30.958Z,22.00
2019-03-01T00:06:18.987Z,21.87
2019-03-01T00:09:06.629Z,21.10
2019-03-01T00:11:59.086Z,21.83
2019-03-01T00:14:46.929Z,22.50
2019-03-01T00:17:37.885Z,21.63
2019-03-01T00:20:30.426Z,22.70
2019-03-01T00:23:04.412Z,21.57
2019-03-01T00:26:05.639Z,22.67
2019-03-01T00:29:05.479Z,22.53
2019-03-01T00:31:36.998Z,22.70
2019-03-01T00:34:32.237Z,23.30
2019-03-01T00:37:12.680Z,23.57
2019-03-01T00:40:00.697Z,23.57
2019-03-01T00:42:49.705Z,22.53
2019-03-01T00:45:18.141Z,23.37
2019-03-01T00:47:46.548Z,23.23
2019-03-01T00:50:14.987Z,24.27
2019-03-01T00:52:43.401Z,25.57
2019-03-01T00:55:12.030Z,24.05
2019-03-01T00:57:40.460Z,24.00
2019-03-01T01:00:23.897Z,24.47
2019-03-01T01:02:52.304Z,24.57
2019-03-01T01:05:20.752Z,22.07
2019-03-01T01:07:49.152Z,23.67
2019-03-01T01:10:17.601Z,24.10
2019-03-01T01:12:46.029Z,23.97
2019-03-01T01:15:14.484Z,24.53
2019-03-01T01:17:42.909Z,24.30
2019-03-01T01:20:11.499Z,24.17
2019-03-01T01:22:39.924Z,25.57
2019-03-01T01:25:08.410Z,26.10
2019-03-01T01:27:37.009Z,27.55
2019-03-01T01:30:08.849Z,26.20
2019-03-01T01:32:37.260Z,26.90
2019-03-01T01:35:05.966Z,27.33
2019-03-01T01:37:34.401Z,27.33
2019-03-01T01:40:02.801Z,29.10
2019-03-01T01:42:31.245Z,28.80
2019-03-01T01:44:59.709Z,28.30
2019-03-01T01:47:28.117Z,29.37
2019-03-01T01:49:56.527Z,29.03
2019-03-01T01:52:24.961Z,29.70
2019-03-01T01:54:53.392Z,30.50
2019-03-01T01:57:21.829Z,29.93
2019-03-01T01:59:50.267Z,31.48
2019-03-01T02:02:18.697Z,30.37
2019-03-01T02:04:47.145Z,31.40
2019-03-01T02:07:15.841Z,31.50
2019-03-01T02:09:44.338Z,30.30
2019-03-01T02:12:12.748Z,29.57
2019-03-01T02:14:41.172Z,31.23
2019-03-01T02:17:09.593Z,32.17
2019-03-01T02:19:38.020Z,32.30
2019-03-01T02:22:06.450Z,33.80
2019-03-01T02:24:34.873Z,34.87
2019-03-01T02:27:22.968Z,34.03
2019-03-01T02:29:51.468Z,33.67
2019-03-01T02:32:31.290Z,36.03
2019-03-01T02:34:59.734Z,32.33
2019-03-01T02:37:28.149Z,34.67
2019-03-01T02:39:56.549Z,34.00
2019-03-01T02:42:24.991Z,34.03
2019-03-01T02:44:53.398Z,34.67
2019-03-01T02:47:21.835Z,36.47
2019-03-01T02:49:50.265Z,36.30
2019-03-01T02:52:18.742Z,34.10
2019-03-01T02:54:47.182Z,36.57
2019-03-01T02:57:15.581Z,36.03
2019-03-01T02:59:44.038Z,37.07
2019-03-01T03:02:12.470Z,38.60
2019-03-01T03:04:40.903Z,38.00
2019-03-01T03:07:13.663Z,37.47
2019-03-01T03:09:42.095Z,38.10
2019-03-01T03:12:10.494Z,37.70
2019-03-01T03:14:38.911Z,35.60
2019-03-01T03:17:07.336Z,38.00
2019-03-01T03:19:35.781Z,36.47
2019-03-01T03:22:04.211Z,35.37
2019-03-01T03:24:32.861Z,35.80
2019-03-01T03:27:01.305Z,34.67
2019-03-01T03:29:29.718Z,36.13
2019-03-01T03:31:58.130Z,37.17
2019-03-01T03:34:26.633Z,35.33
2019-03-01T03:36:55.082Z,35.13
2019-03-01T03:39:23.481Z,35.30
2019-03-01T03:41:51.928Z,33.73
2019-03-01T03:44:20.366Z,35.17
2019-03-01T03:46:48.791Z,36.87
2019-03-01T03:49:17.194Z,35.47
2019-03-01T03:51:55.620Z,35.00
2019-03-01T03:54:24.064Z,37.40
2019-03-01T03:56:52.542Z,37.17
2019-03-01T03:59:21.044Z,37.23
2019-03-01T04:01:49.527Z,35.97
2019-03-01T04:04:17.974Z,35.30
2019-03-01T04:06:46.457Z,35.43
2019-03-01T04:09:14.931Z,33.50
2019-03-01T04:11:43.336Z,33.90
2019-03-01T04:14:11.798Z,33.23
2019-03-01T04:16:40.212Z,32.47
2019-03-01T04:19:08.645Z,33.17
2019-03-01T04:21:37.063Z,29.77
2019-03-01T04:24:05.519Z,29.40
2019-03-01T04:26:33.948Z,29.20
2019-03-01T04:29:02.373Z,29.90
2019-03-01T04:31:30.785Z,28.47
2019-03-01T04:33:59.227Z,28.73
2019-03-01T04:36:27.650Z,28.93
2019-03-01T04:38:56.099Z,28.47
2019-03-01T04:41:24.506Z,27.23
2019-03-01T04:43:52.955Z,27.00
2019-03-01T04:46:21.401Z,26.57
2019-03-01T04:48:49.896Z,27.73
2019-03-01T04:51:18.314Z,27.23
2019-03-01T04:53:46.774Z,26.93
2019-03-01T04:56:15.442Z,28.03
2019-03-01T04:58:43.863Z,25.77
2019-03-01T05:01:12.318Z,25.67
2019-03-01T05:03:40.749Z,26.93
2019-03-01T05:06:09.166Z,25.93
2019-03-01T05:08:37.615Z,26.10
2019-03-01T05:11:06.143Z,25.17
2019-03-01T05:13:34.555Z,25.43
2019-03-01T05:16:03.037Z,26.67
2019-03-01T05:18:31.515Z,26.30
2019-03-01T05:20:59.966Z,25.10
2019-03-01T05:23:28.379Z,24.93
2019-03-01T05:25:56.790Z,25.07
2019-03-01T05:28:25.230Z,23.93
2019-03-01T05:30:53.686Z,23.43
2019-03-01T05:33:22.362Z,18.37
2019-03-01T05:35:50.800Z,19.77
2019-03-01T05:38:22.036Z,18.50
2019-03-01T05:40:49.481Z,18.50
2019-03-01T05:43:17.936Z,18.32
2019-03-01T05:45:46.341Z,16.80
2019-03-01T05:48:14.798Z,17.43
2019-03-01T05:50:43.307Z,17.23
2019-03-01T05:53:11.726Z,17.37
2019-03-01T05:55:40.175Z,17.80
2019-03-01T05:58:31.902Z,17.00
2019-03-01T06:01:09.637Z,17.47
2019-03-01T06:03:50.055Z,17.30
2019-03-01T06:06:24.283Z,17.77
2019-03-01T06:09:13.918Z,15.83
2019-03-01T06:11:53.940Z,16.47
2019-03-01T06:14:40.274Z,15.97
2019-03-01T06:17:17.527Z,15.27
2019-03-01T06:19:51.789Z,14.43
2019-03-01T06:22:32.147Z,14.40
2019-03-01T06:25:09.234Z,13.50
2019-03-01T06:27:55.387Z,13.53
2019-03-01T06:30:55.442Z,12.50
2019-03-01T06:33:41.619Z,11.33
2019-03-01T06:36:15.975Z,12.40
2019-03-01T06:38:51.853Z,11.93
2019-03-01T06:41:36.218Z,11.35
2019-03-01T06:44:31.763Z,11.70
2019-03-01T06:47:14.840Z,10.80
2019-03-01T06:49:53.595Z,11.23
2019-03-01T06:52:23.294Z,11.13
2019-03-01T06:54:51.720Z,9.90
2019-03-01T06:57:20.138Z,10.77
2019-03-01T06:59:48.589Z,10.50
2019-03-01T07:02:18.692Z,11.20
2019-03-01T07:04:47.121Z,10.60
2019-03-01T07:07:15.539Z,12.10
2019-03-01T07:09:43.963Z,11.10
2019-03-01T07:12:12.446Z,10.20
2019-03-01T07:14:40.855Z,10.20
2019-03-01T07:17:09.299Z,10.23
2019-03-01T07:19:37.747Z,10.10
2019-03-01T07:22:06.167Z,9.67
2019-03-01T07:24:34.602Z,8.27
2019-03-01T07:27:03.048Z,7.90
2019-03-01T07:29:31.462Z,8.13
2019-03-01T07:31:59.901Z,6.85
2019-03-01T07:34:28.322Z,6.00
2019-03-01T07:36:56.780Z,6.47
2019-03-01T07:39:25.234Z,5.20
2019-03-01T07:41:53.659Z,5.83
2019-03-01T07:44:22.095Z,5.37
2019-03-01T07:46:53.245Z,5.50
2019-03-01T07:49:20.934Z,5.13
2019-03-01T07:51:49.455Z,4.83
2019-03-01T07:54:18.053Z,4.50
2019-03-01T07:56:46.598Z,5.00
2019-03-01T07:59:15.006Z,4.17
2019-03-01T08:01:43.433Z,3.30
2019-03-01T08:04:11.855Z,4.50
2019-03-01T08:06:40.299Z,4.93
2019-03-01T08:09:11.341Z,5.20
2019-03-01T08:11:40.087Z,5.80
2019-03-01T08:14:10.204Z,5.90
2019-03-01T08:16:38.835Z,6.70
2019-03-01T08:19:07.432Z,6.07
2019-03-01T08:21:35.842Z,6.70
2019-03-01T08:24:07.695Z,5.87
2019-03-01T08:26:34.945Z,4.50
2019-03-01T08:29:03.468Z,4.57
2019-03-01T08:31:32.059Z,4.80
2019-03-01T08:34:00.477Z,3.23
2019-03-01T08:36:28.936Z,3.10
2019-03-01T08:39:00.971Z,2.97
2019-03-01T08:41:27.940Z,2.77
2019-03-01T08:43:56.365Z,2.67
2019-03-01T08:46:26.776Z,2.90
2019-03-01T08:48:54.938Z,2.80
2019-03-01T08:51:26.449Z,2.83
2019-03-01T08:53:53.751Z,2.57
2019-03-01T08:56:26.112Z,2.97
2019-03-01T08:58:52.431Z,2.80
2019-03-01T09:01:23.283Z,2.90
2019-03-01T09:04:03.686Z,4.40
2019-03-01T09:06:32.104Z,3.23
2019-03-01T09:09:00.750Z,3.17
2019-03-01T09:11:30.650Z,3.40
2019-03-01T09:13:59.144Z,2.47
2019-03-01T09:16:27.831Z,3.30
2019-03-01T09:18:56.275Z,2.80
2019-03-01T09:21:24.695Z,2.83
2019-03-01T09:23:54.998Z,2.83
2019-03-01T09:26:23.348Z,2.83
2019-03-01T09:28:51.765Z,2.73
2019-03-01T09:31:20.198Z,2.83
2019-03-01T09:33:48.612Z,2.73
2019-03-01T09:36:21.294Z,3.70
2019-03-01T09:38:49.160Z,2.87
2019-03-01T09:41:17.644Z,2.80
2019-03-01T09:43:46.074Z,2.80
2019-03-01T09:46:14.596Z,2.80
2019-03-01T09:48:45.518Z,3.43
2019-03-01T09:51:13.270Z,2.80
2019-03-01T09:53:41.675Z,2.70
2019-03-01T09:56:12.988Z,3.40
2019-03-01T09:58:40.291Z,2.43
2019-03-01T10:01:12.151Z,2.50
2019-03-01T10:03:40.588Z,2.70
2019-03-01T10:06:08.988Z,2.80
2019-03-01T10:08:37.428Z,3.00
2019-03-01T10:11:05.839Z,2.57
2019-03-01T10:16:02.753Z,3.23
2019-03-01T10:18:31.203Z,2.77
2019-03-01T10:20:59.665Z,3.83
2019-03-01T10:23:28.071Z,3.93
2019-03-01T10:25:56.575Z,4.03
2019-03-01T10:28:25.012Z,3.20
2019-03-01T10:30:53.505Z,3.57
2019-03-01T10:33:21.996Z,4.40
2019-03-01T10:35:50.478Z,4.07
2019-03-01T10:38:18.931Z,3.60
2019-03-01T10:40:47.451Z,4.67
2019-03-01T10:43:15.885Z,4.20
2019-03-01T10:45:44.326Z,4.90
2019-03-01T10:48:12.759Z,6.33
2019-03-01T10:50:41.248Z,5.53
2019-03-01T10:53:09.720Z,6.10
2019-03-01T10:55:38.167Z,6.87
2019-03-01T10:58:06.606Z,6.33
2019-03-01T11:00:35.235Z,6.13
2019-03-01T11:03:03.715Z,6.07
2019-03-01T11:05:32.236Z,6.30
2019-03-01T11:08:00.652Z,7.03
2019-03-01T11:10:37.633Z,7.70
2019-03-01T11:13:11.584Z,6.80
2019-03-01T11:15:40.107Z,7.27
2019-03-01T11:18:08.604Z,7.47
2019-03-01T11:20:37.032Z,7.37
2019-03-01T11:23:05.461Z,7.10
2019-03-01T11:25:33.957Z,8.23
2019-03-01T11:28:02.367Z,6.97
2019-03-01T11:30:35.187Z,6.83
2019-03-01T11:33:03.714Z,6.03
2019-03-01T11:35:32.183Z,5.43
2019-03-01T11:38:00.604Z,4.80
2019-03-01T11:40:34.153Z,4.10
2019-03-01T11:43:02.655Z,4.47
2019-03-01T11:45:31.064Z,4.70
2019-03-01T11:47:59.747Z,4.20
2019-03-01T11:50:28.227Z,4.90
2019-03-01T11:52:56.823Z,4.77
2019-03-01T11:55:25.276Z,4.37
2019-03-01T11:57:53.767Z,5.13
2019-03-01T12:00:25.135Z,5.10
2019-03-01T12:02:53.805Z,4.20
2019-03-01T12:05:22.323Z,4.37
2019-03-01T12:07:51.204Z,4.07
2019-03-01T12:10:28.635Z,4.00
2019-03-01T12:12:57.078Z,4.33
2019-03-01T12:15:25.632Z,4.03
2019-03-01T12:17:54.054Z,3.90
2019-03-01T12:20:28.318Z,2.73
2019-03-01T12:22:56.727Z,3.40
2019-03-01T12:25:25.195Z,3.70
2019-03-01T12:27:53.741Z,4.83
2019-03-01T12:30:23.490Z,3.27
2019-03-01T12:32:51.961Z,2.87
2019-03-01T12:35:20.506Z,3.13
2019-03-01T12:37:48.931Z,3.50
2019-03-01T12:40:22.898Z,3.20
2019-03-01T12:42:51.382Z,2.93
2019-03-01T12:45:19.891Z,3.40
2019-03-01T12:47:48.320Z,3.87
2019-03-01T12:50:16.786Z,3.13
2019-03-01T12:52:45.477Z,3.07
2019-03-01T12:55:21.782Z,7.70
2019-03-01T12:57:50.254Z,3.20
2019-03-01T13:00:27.487Z,3.80
2019-03-01T13:02:55.920Z,3.43
2019-03-01T13:05:25.622Z,3.03
2019-03-01T13:07:54.640Z,2.70
2019-03-01T13:10:25.510Z,3.10
2019-03-01T13:12:54.719Z,2.80
2019-03-01T13:15:23.402Z,3.03
2019-03-01T13:17:51.951Z,3.40
2019-03-01T13:20:20.466Z,3.27
2019-03-01T13:22:48.898Z,3.73
2019-03-01T13:25:18.320Z,4.67
2019-03-01T13:27:48.667Z,3.70
2019-03-01T13:30:27.635Z,3.93
2019-03-01T13:32:59.001Z,3.00
2019-03-01T13:35:27.457Z,3.77
2019-03-01T13:38:00.145Z,3.10
2019-03-01T13:40:28.571Z,3.07
2019-03-01T13:42:57.070Z,3.30
2019-03-01T13:45:26.244Z,3.37
2019-03-01T13:47:54.654Z,3.40
2019-03-01T13:50:23.243Z,3.70
2019-03-01T13:52:51.730Z,3.60
2019-03-01T13:55:22.275Z,3.07
2019-03-01T13:57:51.327Z,2.77
2019-03-01T14:00:21.367Z,3.50
2019-03-01T14:02:50.222Z,2.93
2019-03-01T14:05:18.890Z,3.73
2019-03-01T14:07:47.968Z,4.07
2019-03-01T14:10:24.082Z,3.17
2019-03-01T14:12:52.502Z,3.53
2019-03-01T14:15:21.176Z,3.43
2019-03-01T14:17:49.668Z,3.43
2019-03-01T14:20:21.114Z,3.47
2019-03-01T14:22:49.907Z,3.53
2019-03-01T14:25:18.405Z,4.40
2019-03-01T14:27:47.219Z,3.93
2019-03-01T14:30:25.309Z,2.97
2019-03-01T14:32:57.526Z,3.93
2019-03-01T14:35:26.848Z,2.80
2019-03-01T14:37:55.568Z,3.13
2019-03-01T14:40:24.203Z,3.60
2019-03-01T14:42:52.685Z,3.72
2019-03-01T14:45:26.116Z,3.93
2019-03-01T14:47:55.136Z,3.63
2019-03-01T14:50:33.793Z,4.23
2019-03-01T14:53:01.568Z,4.33
2019-03-01T14:55:35.936Z,3.97
2019-03-01T14:58:13.248Z,4.13
2019-03-01T15:00:49.614Z,3.53
2019-03-01T15:03:32.805Z,3.50
2019-03-01T15:06:01.585Z,3.77
2019-03-01T15:08:30.130Z,3.90
2019-03-01T15:11:00.410Z,3.77
2019-03-01T15:13:31.353Z,3.13
2019-03-01T15:16:01.087Z,4.00
2019-03-01T15:18:32.376Z,3.20
2019-03-01T15:21:02.394Z,3.60
2019-03-01T15:23:29.722Z,3.60
2019-03-01T15:25:58.161Z,3.47
2019-03-01T15:28:26.588Z,4.57
2019-03-01T15:30:57.122Z,2.87
2019-03-01T15:33:25.239Z,3.33
2019-03-01T15:35:53.742Z,3.57
2019-03-01T15:38:23.849Z,3.90
2019-03-01T15:40:52.350Z,3.40
2019-03-01T15:43:20.788Z,3.50
2019-03-01T15:45:49.213Z,3.40
2019-03-01T15:48:17.647Z,3.40
2019-03-01T15:50:46.152Z,3.80
2019-03-01T15:53:14.835Z,3.50
2019-03-01T15:55:43.259Z,3.10
2019-03-01T15:58:11.707Z,3.80
2019-03-01T16:00:40.307Z,3.87
2019-03-01T16:03:08.863Z,3.70
2019-03-01T16:05:38.184Z,3.13
2019-03-01T16:08:08.315Z,3.53
2019-03-01T16:10:37.010Z,3.87
2019-03-01T16:13:08.257Z,4.08
2019-03-01T16:15:38.715Z,3.30
2019-03-01T16:18:05.774Z,3.87
2019-03-01T16:20:34.198Z,3.40
2019-03-01T16:23:02.698Z,3.30
2019-03-01T16:25:31.110Z,3.60
2019-03-01T16:27:59.551Z,4.07
2019-03-01T16:30:27.964Z,3.57
2019-03-01T16:32:56.394Z,3.43
2019-03-01T16:35:24.850Z,5.20
2019-03-01T16:38:01.394Z,4.13
2019-03-01T16:40:32.429Z,4.30
2019-03-01T16:43:00.956Z,3.93
2019-03-01T16:45:29.410Z,3.93
2019-03-01T16:47:57.836Z,5.03
2019-03-01T16:50:26.246Z,5.20
2019-03-01T16:52:54.693Z,5.63
2019-03-01T16:55:27.974Z,4.27
2019-03-01T16:58:06.297Z,4.07
2019-03-01T17:00:26.175Z,4.77
2019-03-01T17:03:06.194Z,4.10
2019-03-01T17:05:35.825Z,3.87
2019-03-01T17:08:06.036Z,4.20
2019-03-01T17:10:34.686Z,3.70
2019-03-01T17:13:03.106Z,4.03
2019-03-01T17:15:31.588Z,3.40
2019-03-01T17:18:00.023Z,3.73
2019-03-01T17:20:28.471Z,3.27
2019-03-01T17:22:59.772Z,3.53
2019-03-01T17:25:27.713Z,4.27
2019-03-01T17:27:56.256Z,3.47
2019-03-01T17:30:25.781Z,4.67
2019-03-01T17:32:54.240Z,3.87
2019-03-01T17:35:22.790Z,4.30
2019-03-01T17:37:51.246Z,4.20
2019-03-01T17:40:20.225Z,4.33
2019-03-01T17:42:49.229Z,3.97
2019-03-01T17:45:24.751Z,4.20
2019-03-01T17:47:55.298Z,3.90
2019-03-01T17:50:23.792Z,4.80
2019-03-01T17:52:52.223Z,5.37
2019-03-01T17:55:24.369Z,4.50
2019-03-01T17:57:53.171Z,5.60
2019-03-01T18:00:33.394Z,4.43
2019-03-01T18:03:01.909Z,4.27
2019-03-01T18:05:30.346Z,4.90
2019-03-01T18:08:00.057Z,4.20
2019-03-01T18:10:32.187Z,3.73
2019-03-01T18:12:59.235Z,4.53
2019-03-01T18:15:27.859Z,4.00
2019-03-01T18:17:56.310Z,4.37
2019-03-01T18:20:24.723Z,3.60
2019-03-01T18:22:53.255Z,4.80
2019-03-01T18:25:22.776Z,4.03
2019-03-01T18:27:53.090Z,5.30
2019-03-01T18:30:30.149Z,4.73
2019-03-01T18:32:58.647Z,4.83
2019-03-01T18:35:27.075Z,4.73
2019-03-01T18:37:56.094Z,4.83
2019-03-01T18:40:24.731Z,4.70
2019-03-01T18:42:53.202Z,5.47
2019-03-01T18:45:25.569Z,4.93
2019-03-01T18:47:53.988Z,4.47
2019-03-01T18:50:31.174Z,5.30
2019-03-01T18:52:59.328Z,4.40
2019-03-01T18:55:27.720Z,4.13
2019-03-01T18:57:56.163Z,4.20
2019-03-01T19:00:28.970Z,4.27
2019-03-01T19:02:57.638Z,4.50
2019-03-01T19:05:26.058Z,3.83
2019-03-01T19:07:54.522Z,4.00
2019-03-01T19:10:27.575Z,4.33
2019-03-01T19:12:57.023Z,6.00
2019-03-01T19:15:25.498Z,3.50
2019-03-01T19:17:54.003Z,3.80
2019-03-01T19:20:24.850Z,3.47
2019-03-01T19:22:53.362Z,4.50
2019-03-01T19:25:25.211Z,5.60
2019-03-01T19:27:52.323Z,4.17
2019-03-01T19:30:25.111Z,4.17
2019-03-01T19:32:53.849Z,4.37
2019-03-01T19:35:28.290Z,3.90
2019-03-01T19:37:52.423Z,4.60
2019-03-01T19:40:22.355Z,4.45
2019-03-01T19:42:50.884Z,4.73
2019-03-01T19:45:19.755Z,5.30
2019-03-01T19:47:48.167Z,4.03
2019-03-01T19:50:26.965Z,4.40
2019-03-01T19:52:55.416Z,5.20
2019-03-01T19:55:24.209Z,4.30
2019-03-01T19:57:52.746Z,5.10
2019-03-01T20:00:26.320Z,4.13
2019-03-01T20:02:54.745Z,4.33
2019-03-01T20:05:27.939Z,3.77
2019-03-01T20:07:56.035Z,4.33
2019-03-01T20:10:24.635Z,4.00
2019-03-01T20:12:53.226Z,3.63
2019-03-01T20:15:23.370Z,3.60
2019-03-01T20:17:52.356Z,4.20
2019-03-01T20:20:25.449Z,4.10
2019-03-01T20:22:55.121Z,3.70
2019-03-01T20:25:23.827Z,3.47
2019-03-01T20:27:52.258Z,3.63
2019-03-01T20:30:30.176Z,4.00
2019-03-01T20:32:56.830Z,3.87
2019-03-01T20:35:26.119Z,3.73
2019-03-01T20:37:55.624Z,4.03
2019-03-01T20:40:26.695Z,4.23
2019-03-01T20:42:55.885Z,4.03
2019-03-01T20:45:31.853Z,4.87
2019-03-01T20:48:00.419Z,3.77
2019-03-01T20:50:28.988Z,4.80
2019-03-01T20:52:57.467Z,3.83
2019-03-01T20:55:27.672Z,4.07
2019-03-01T20:57:59.711Z,3.70
2019-03-01T21:00:29.785Z,3.87
2019-03-01T21:02:57.750Z,4.30
2019-03-01T21:05:28.873Z,4.10
2019-03-01T21:07:56.354Z,3.87
2019-03-01T21:10:25.815Z,4.10
2019-03-01T21:12:54.299Z,3.27
2019-03-01T21:15:22.709Z,3.33
2019-03-01T21:17:53.006Z,3.47
2019-03-01T21:20:21.423Z,3.40
2019-03-01T21:22:49.836Z,4.83
2019-03-01T21:25:22.382Z,3.70
2019-03-01T21:27:50.858Z,3.60
2019-03-01T21:30:30.299Z,4.53
2019-03-01T21:32:58.736Z,4.20
2019-03-01T21:35:27.170Z,4.23
2019-03-01T21:37:55.618Z,4.30
2019-03-01T21:40:24.138Z,4.03
2019-03-01T21:42:56.014Z,3.80
2019-03-01T21:45:25.567Z,4.53
2019-03-01T21:47:54.074Z,4.10
2019-03-01T21:50:22.699Z,3.67
2019-03-01T21:52:51.254Z,4.60
2019-03-01T21:55:24.989Z,4.57
2019-03-01T21:57:51.838Z,4.00
2019-03-01T22:00:30.959Z,4.67
2019-03-01T22:02:59.170Z,4.67
2019-03-01T22:05:27.622Z,4.37
2019-03-01T22:07:57.394Z,5.40
2019-03-01T22:10:25.831Z,3.87
2019-03-01T22:12:56.874Z,4.77
2019-03-01T22:15:27.055Z,3.90
2019-03-01T22:17:55.919Z,3.67
2019-03-01T22:20:24.851Z,4.10
2019-03-01T22:22:53.434Z,3.73
2019-03-01T22:25:21.960Z,4.10
2019-03-01T22:27:50.386Z,4.37
2019-03-01T22:30:27.950Z,4.13
2019-03-01T22:32:56.436Z,3.20
2019-03-01T22:35:24.867Z,3.95
2019-03-01T22:37:53.314Z,3.27
2019-03-01T22:40:24.137Z,4.23
2019-03-01T22:42:51.879Z,3.00
2019-03-01T22:45:20.294Z,3.50
2019-03-01T22:47:48.714Z,3.53
2019-03-01T22:50:18.186Z,3.10
2019-03-01T22:52:46.634Z,3.10
2019-03-01T22:55:16.073Z,2.80
2019-03-01T22:57:45.064Z,3.23
2019-03-01T23:00:30.038Z,3.60
2019-03-01T23:02:58.536Z,2.80
2019-03-01T23:05:26.946Z,3.33
2019-03-01T23:07:56.903Z,2.43
2019-03-01T23:10:25.583Z,3.50
2019-03-01T23:12:54.041Z,3.57
2019-03-01T23:15:22.452Z,3.47
2019-03-01T23:17:50.860Z,3.03
2019-03-01T23:20:19.290Z,2.87
2019-03-01T23:22:47.721Z,2.70
2019-03-01T23:25:16.129Z,2.90
2019-03-01T23:27:44.565Z,3.60
2019-03-01T23:30:13.047Z,3.00
2019-03-01T23:32:41.492Z,3.33
2019-03-01T23:35:09.903Z,2.60
2019-03-01T23:37:38.822Z,2.73
2019-03-01T23:40:08.386Z,3.70
2019-03-01T23:42:36.824Z,3.03
2019-03-01T23:45:07.956Z,3.60
2019-03-01T23:47:38.384Z,3.10
2019-03-01T23:50:08.739Z,2.73
2019-03-01T23:52:37.175Z,3.20
2019-03-01T23:55:07.610Z,3.33
2019-03-01T23:57:37.898Z,2.27
